Luka Sucic

Olheiro-Chefe - Dinamo Zagreb
23 Out 2027
Sábado
Processo

Personalidade

Adaptabilidade (5) Ambição (5) Controvérsia (7) Lealdade (19) Pressão (9) Profissionalismo (7) Espírito Esportivo (17) Temperamento (14)

Perfil

Estilo de Treinamento Democrático
Licença Continental Pro
Determinação 7
Gestão de Pessoas 15
Motivação 15
Disciplina 5
Satisfação no Trabalho
100%
Fadiga
0%
Função Olheiro-Chefe
Salário 75.6K p/s
Contrato 14.03.2030

Desempenho

Comportamento Bom
Eficácia do Treinamento
61%
Desenvolvimento do Jogador
65%
Prevenção de Lesões
50%
Implementação Tática
50%

Eventos Recentes

Participou de uma reunião de recrutamento agora
Recomendou um alvo de transferência agora
Recomendou um alvo de transferência agora
Recomendou um alvo de transferência agora
Recomendou um alvo de transferência 7d atrás
Recomendou um alvo de transferência 7d atrás
Recomendou um alvo de transferência 7d atrás
Recomendou um alvo de transferência 7d atrás

Monitorando agora

99
Jogador Clube Status Habilidade Confiança Observado Última observação Último voto
Ayrton Costa Boca Juniors Perdido 136 / 142 40% 1 24.08.2027 -
Nordi Mukiele Sunderland Ativo 141 / 148 40% 1 14.06.2027 -
Konstantin Tyukavin Arsenal Ativo 132 / 133 66% 1 01.06.2027 Aprovar
Marin Benko Zadar Ativo 131 / 121 51% 1 01.06.2027 -
Ricardo Mathias Al-Ahli Ativo 123 / 140 40% 1 31.05.2027 -
Mark Travers Everton Ativo 129 / 128 40% 9 29.05.2027 -
Viktor Johansson Stoke City Ativo 148 / 120 40% 10 27.05.2027 -
Sebastián Meza Huracán Ativo 116 / 121 40% 2 27.05.2027 -
Facundo Cambeses Racing Club Ativo 132 / 127 40% 4 26.05.2027 -
Arijanet Murić Sassuolo Ativo 151 / 151 40% 5 25.05.2027 -
Maduka Okoye Udinese Ativo 147 / 147 40% 9 25.05.2027 -
Bento Lokomotiv Moscow Ativo 136 / 132 40% 11 23.05.2027 -
Grégoire Coudert Burnley Ativo 128 / 136 40% 8 20.05.2027 -
Carl Rushworth Coventry City Ativo 137 / 127 40% 9 15.05.2027 -
Dominik Takáč Slovan Bratislava Ativo 135 / 134 40% 3 14.05.2027 -
Dinko Horkaš Al Wasl Ativo 146 / 142 40% 3 12.05.2027 -
Sol Brynn Middlesbrough Ativo 111 / 131 40% 2 10.05.2027 -
Max O'Leary West Bromwich Albion Ativo 128 / 137 40% 6 08.05.2027 -
Dmytro Riznyk AS Roma Ativo 146 / 139 40% 2 07.05.2027 -
James Trafford Leeds United Ativo 149 / 133 40% 6 05.05.2027 -
Radek Vítek Middlesbrough Ativo 147 / 149 40% 7 05.05.2027 -
Kostantis Tzolakis Hull City Ativo 130 / 140 40% 5 25.04.2027 -
Tomás Durso Atlético Tucumán Ativo 135 / 127 40% 1 23.04.2027 -
Svetoslav Vutsov Levski Ativo 127 / 117 40% 4 19.04.2027 -
Felipe Zenobio Tigre Ativo 117 / 140 40% 1 19.04.2027 -
Mateusz Kochalski Qarabag Ativo 115 / 131 40% 7 13.04.2027 -
Edoardo Motta Lazio Ativo 115 / 120 40% 2 13.04.2027 -
Michael Cooper Sheffield United Ativo 149 / 115 40% 3 02.04.2027 -
Alex Meret Napoli Ativo 159 / 159 40% 5 29.03.2027 -
Mads Hermansen West Ham United Ativo 137 / 131 40% 2 24.03.2027 -
Simone Scuffet Pisa Ativo 122 / 123 40% 1 20.03.2027 -
Jacob Widell Zetterström Derby County Ativo 113 / 113 40% 2 16.03.2027 -
Federico Ravaglia Bologna Ativo 118 / 133 40% 5 14.03.2027 -
Dean Henderson Crystal Palace Ativo 143 / 152 40% 2 09.03.2027 -
Adrian Šemper Al-Fateh Ativo 115 / 114 40% 8 05.03.2027 -
Đorđe Petrović Bournemouth Ativo 167 / 147 40% 3 28.02.2027 -
Alex Palmer Ipswich Town Ativo 112 / 146 40% 2 25.02.2027 -
Josh Keeley Luton Town Ativo 113 / 137 40% 1 18.02.2027 -
Nathan Trott Cardiff City Ativo 109 / 124 40% 1 15.02.2027 -
Lorenzo Montipò Venezia Ativo 152 / 130 40% 2 02.02.2027 -
John Victor Nottingham Forest Ativo 137 / 120 40% 1 02.02.2027 -
Daniel Iversen Preston Ativo 111 / 122 40% 1 01.02.2027 -
Egil Selvik Watford Ativo 114 / 107 40% 1 23.01.2027 -
Anthony Patterson Wrexham Ativo 111 / 135 40% 1 19.01.2027 -
Filip Stanković Venezia Ativo 118 / 137 40% 1 15.01.2027 -
Josep Martínez Inter Ativo 132 / 152 40% 1 11.01.2027 -
Vanja Milinković-Savić Napoli Ativo 130 / 141 40% 1 04.01.2027 -
Lorenzo Palmisani Frosinone Ativo 112 / 129 40% 1 04.01.2027 -
Mao Hosoya Manchester City Negociando 134 / 135 67% 1 01.01.2027 Aprovar
Bitello Empoli Ativo 135 / 135 68% 1 01.01.2027 Aprovar
Stanislav Agkatsev TSG Hoffenheim Negociando 132 / 133 66% 1 01.01.2027 Aprovar
Luiz Henrique VfB Stuttgart Ativo 142 / 143 68% 1 01.01.2027 Aprovar
Kialonda Gaspar Lecce Ativo 124 / 140 40% 1 01.01.2027 -
Billy Gilmour Napoli Ativo 135 / 139 40% 1 29.12.2026 -
Oliver Christensen Fiorentina Ativo 128 / 123 40% 1 29.12.2026 -
Stefano Turati Sassuolo Ativo 118 / 127 40% 1 27.12.2026 -
Nicolò Rovella Lazio Ativo 150 / 156 40% 1 23.12.2026 -
Pablo Lara Pumas UNAM Ativo 119 / 127 40% 1 21.12.2026 -
Szabolcs Szoboszlai Haladas Ativo 140 / 126 40% 3 19.12.2026 -
Diego Costa Krasnodar Ativo 131 / 147 40% 2 19.12.2026 -
Mahamadou Doumbia Al-Ittihad Ativo 117 / 118 40% 1 17.12.2026 -
Volodymyr Brazhko Dynamo Kyiv Ativo 117 / 120 40% 1 16.12.2026 -
Fernando Tapia Club America Ativo 142 / 141 40% 1 12.12.2026 -
Maílson Al-Taawoun Ativo 110 / 146 40% 6 28.11.2026 -
Petar Sučić Inter Ativo 130 / 160 40% 5 27.11.2026 -
Ivan Smolčić Como Ativo 119 / 140 40% 2 26.11.2026 -
Arnaud Bodart LOSC Lille Ativo 110 / 118 40% 5 22.11.2026 -
Gedson Fernandes Spartak Moscow Ativo 145 / 147 40% 2 21.11.2026 -
Chris Brady Bayer Leverkusen Ativo 110 / 148 40% 2 13.11.2026 -
Raúl Rangel Brighton Ativo 152 / 152 40% 2 07.11.2026 -
Niklas Hedl Rapid Wien Ativo 111 / 123 40% 3 03.11.2026 -
Pedro Henrique Shakhtar Ativo 118 / 127 40% 1 01.11.2026 -
Zaydou Youssouf Al-Fateh Ativo 115 / 143 40% 1 31.10.2026 -
Denis Adamov Zenit Ativo 113 / 133 40% 3 27.10.2026 -
Christian Krasnodar Ativo 124 / 140 40% 1 20.10.2026 -
Matt Freese New York City Ativo 144 / 138 40% 3 15.10.2026 -
Niklas Dorsch Toronto FC Ativo 133 / 120 40% 2 14.10.2026 -
Rubens Dinamo Moscow Ativo 120 / 121 40% 1 13.10.2026 -
Josh Brownhill Al-Shabab Ativo 149 / 130 40% 1 13.10.2026 -
Danil Glebov Dinamo Moscow Ativo 120 / 129 40% 1 08.10.2026 -
Alexandr Maximenko Spartak Moscow Ativo 112 / 111 40% 1 08.10.2026 -
Luka Lijeskić Radnicki 1923 Ativo 106 / 122 40% 1 07.10.2026 -
David Douděra FC Cincinnati Ativo 144 / 129 40% 1 04.10.2026 -
Sergio Reguilón Inter Miami CF Ativo 120 / 121 40% 3 03.10.2026 -
Andreas Hanche-Olsen Chicago Fire Ativo 137 / 119 40% 1 02.10.2026 -
Omri Glazer Maccabi Haifa Ativo 114 / 123 40% 1 27.09.2026 -
Viktor Baier Viktoria Plzen Ativo 124 / 120 40% 1 22.09.2026 -
Evander FC Cincinnati Ativo 121 / 151 40% 2 18.09.2026 -
Eduard Löwen San Jose Earthquakes Ativo 120 / 121 40% 2 18.09.2026 -
Patrick Pentz Brondby Ativo 110 / 128 40% 2 16.09.2026 -
Dayne St. Clair Inter Miami CF Ativo 111 / 110 40% 1 08.09.2026 -
Lukáš Červ Viktoria Plzen Ativo 143 / 130 40% 1 08.09.2026 -
Diego Enríquez Sporting Cristal Ativo 119 / 135 40% 1 01.09.2026 -
Nail Omerović NK Osijek Ativo 105 / 116 51% 1 24.08.2026 -
Lovro Majer AEK Ativo 139 / 152 40% 1 18.08.2026 -
Allan Saint-Maximin Charlotte Football Club Ativo 143 / 122 40% 1 18.08.2026 -
Mbekezeli Mbokazi Chicago Fire Ativo 139 / 125 40% 1 03.08.2026 -
Rasmus Kristensen FC Midtjylland Ativo 156 / 128 40% 1 03.08.2026 -
Karim Adeyemi Barcelona Ativo 168 / 147 40% 1 02.08.2026 -